createdAt,value
2023-04-28T00:00:31.677Z,2.6111111111111427
2023-04-28T00:01:31.653Z,2.500000000000057
2023-04-28T00:02:31.900Z,2.500000000000057
2023-04-28T00:03:31.901Z,2.500000000000057
2023-04-28T00:04:31.885Z,2.500000000000057
2023-04-28T00:05:31.691Z,2.500000000000057
2023-04-28T00:06:31.689Z,2.388888888888914
2023-04-28T00:07:31.700Z,2.388888888888914
2023-04-28T00:08:31.666Z,2.388888888888914
2023-04-28T00:09:31.669Z,2.388888888888914
2023-04-28T00:10:31.723Z,2.388888888888914
2023-04-28T00:11:31.675Z,2.388888888888914
2023-04-28T00:12:31.684Z,2.388888888888914
2023-04-28T00:13:31.641Z,2.2777777777778283
2023-04-28T00:14:31.672Z,2.2777777777778283
2023-04-28T00:15:31.668Z,2.2777777777778283
2023-04-28T00:16:31.706Z,2.2777777777778283
2023-04-28T00:17:31.722Z,2.2777777777778283
2023-04-28T00:18:31.727Z,2.2777777777778283
2023-04-28T00:19:31.663Z,2.2777777777778283
2023-04-28T00:20:31.736Z,2.2777777777778283
2023-04-28T00:21:31.656Z,2.2777777777778283
2023-04-28T00:22:31.697Z,2.2222222222222854
2023-04-28T00:23:31.684Z,2.2222222222222854
2023-04-28T00:24:31.628Z,2.2777777777778283
2023-04-28T00:25:31.696Z,2.2777777777778283
2023-04-28T00:26:31.680Z,2.2222222222222854
2023-04-28T00:27:31.716Z,2.2222222222222854
2023-04-28T00:28:34.704Z,2.2222222222222854
2023-04-28T00:29:31.696Z,2.2222222222222854
2023-04-28T00:30:31.655Z,2.2222222222222854
2023-04-28T00:31:31.721Z,2.1111111111111427
2023-04-28T00:32:31.681Z,2.1111111111111427
2023-04-28T00:33:31.671Z,2.1111111111111427
2023-04-28T00:34:31.665Z,2.1111111111111427
2023-04-28T00:35:31.694Z,2.1111111111111427
2023-04-28T00:36:31.685Z,2.1111111111111427
2023-04-28T00:37:31.648Z,2.1111111111111427
2023-04-28T00:38:31.664Z,2.000000000000057
2023-04-28T00:39:31.678Z,2.1111111111111427
2023-04-28T00:40:31.670Z,2.000000000000057
2023-04-28T00:41:31.633Z,2.000000000000057
2023-04-28T00:42:31.661Z,2.000000000000057
2023-04-28T00:43:31.711Z,2.000000000000057
2023-04-28T00:44:31.680Z,2.000000000000057
2023-04-28T00:45:31.712Z,2.000000000000057
2023-04-28T00:46:31.657Z,2.000000000000057
2023-04-28T00:47:31.790Z,2.000000000000057
2023-04-28T00:48:31.697Z,2.000000000000057
2023-04-28T00:49:31.653Z,2.000000000000057
2023-04-28T00:50:31.653Z,2.000000000000057
2023-04-28T00:51:31.664Z,2.000000000000057
2023-04-28T00:52:31.664Z,2.000000000000057
2023-04-28T00:53:31.653Z,2.000000000000057
2023-04-28T00:54:31.698Z,2.000000000000057
2023-04-28T00:55:31.688Z,2.000000000000057
2023-04-28T00:56:31.680Z,2.000000000000057
2023-04-28T00:57:31.651Z,1.8888888888889142
2023-04-28T00:58:31.649Z,1.8888888888889142
2023-04-28T00:59:31.695Z,1.8888888888889142
2023-04-28T01:00:31.690Z,1.8888888888889142
2023-04-28T01:01:31.651Z,1.8888888888889142
2023-04-28T01:02:31.790Z,1.8888888888889142
2023-04-28T01:03:31.866Z,1.8888888888889142
2023-04-28T01:04:32.050Z,1.8888888888889142
2023-04-28T01:05:31.662Z,1.7777777777778283
2023-04-28T01:06:31.674Z,1.7777777777778283
2023-04-28T01:07:31.677Z,1.7777777777778283
2023-04-28T01:08:31.688Z,1.7777777777778283
2023-04-28T01:09:31.657Z,1.7777777777778283
2023-04-28T01:10:31.661Z,1.7777777777778283
2023-04-28T01:11:31.677Z,1.7777777777778283
2023-04-28T01:12:31.654Z,1.7777777777778283
2023-04-28T01:13:31.666Z,1.7777777777778283
2023-04-28T01:14:31.659Z,1.7777777777778283
2023-04-28T01:15:31.713Z,1.7777777777778283
2023-04-28T01:16:31.720Z,1.7222222222222854
2023-04-28T01:17:31.668Z,1.7222222222222854
2023-04-28T01:18:31.669Z,1.7222222222222854
2023-04-28T01:19:31.699Z,1.7222222222222854
2023-04-28T01:20:31.673Z,1.7222222222222854
2023-04-28T01:21:31.658Z,1.7222222222222854
2023-04-28T01:22:31.639Z,1.7222222222222854
2023-04-28T01:23:31.701Z,1.7222222222222854
2023-04-28T01:24:31.681Z,1.7222222222222854
2023-04-28T01:25:31.618Z,1.7222222222222854
2023-04-28T01:26:31.693Z,1.7222222222222854
2023-04-28T01:27:31.679Z,1.7222222222222854
2023-04-28T01:28:31.688Z,1.7222222222222854
2023-04-28T01:29:31.646Z,1.7222222222222854
2023-04-28T01:30:31.667Z,1.7222222222222854
2023-04-28T01:31:31.718Z,1.7222222222222854
2023-04-28T01:32:31.679Z,1.7222222222222854
2023-04-28T01:33:31.666Z,1.6111111111111427
2023-04-28T01:34:31.679Z,1.6111111111111427
2023-04-28T01:35:31.688Z,1.6111111111111427
2023-04-28T01:36:31.668Z,1.6111111111111427
2023-04-28T01:37:31.662Z,1.6111111111111427
2023-04-28T01:38:31.676Z,1.6111111111111427
2023-04-28T01:39:31.655Z,1.6111111111111427
2023-04-28T01:40:31.809Z,1.6111111111111427
2023-04-28T01:41:31.786Z,1.6111111111111427
2023-04-28T01:42:31.813Z,1.6111111111111427
2023-04-28T01:43:31.807Z,1.5000000000000568
2023-04-28T01:44:31.793Z,1.5000000000000568
2023-04-28T01:45:31.755Z,1.5000000000000568
2023-04-28T01:46:31.918Z,1.5000000000000568
2023-04-28T01:47:31.815Z,1.5000000000000568
2023-04-28T01:48:31.795Z,1.5000000000000568
2023-04-28T01:49:31.771Z,1.3888888888889142
2023-04-28T01:50:31.795Z,1.3888888888889142
2023-04-28T01:51:31.772Z,1.3888888888889142
2023-04-28T01:52:31.792Z,1.3888888888889142
2023-04-28T01:53:31.822Z,1.3888888888889142
2023-04-28T01:54:31.814Z,1.3888888888889142
2023-04-28T01:55:31.810Z,1.3888888888889142
2023-04-28T01:56:31.819Z,1.3888888888889142
2023-04-28T01:57:31.778Z,1.3888888888889142
2023-04-28T01:58:31.819Z,1.3888888888889142
2023-04-28T01:59:31.766Z,1.3888888888889142
2023-04-28T02:00:31.706Z,1.3888888888889142
2023-04-28T02:01:31.750Z,1.5000000000000568
2023-04-28T02:02:31.748Z,1.5000000000000568
2023-04-28T02:03:31.899Z,1.3888888888889142
2023-04-28T02:04:31.791Z,1.3888888888889142
2023-04-28T02:05:31.640Z,1.3888888888889142
2023-04-28T02:06:31.679Z,1.3888888888889142
2023-04-28T02:07:31.691Z,1.3888888888889142
2023-04-28T02:08:31.664Z,1.3888888888889142
2023-04-28T02:09:31.654Z,1.3888888888889142
2023-04-28T02:10:31.673Z,1.3888888888889142
2023-04-28T02:11:31.671Z,1.3888888888889142
2023-04-28T02:12:31.656Z,1.2777777777778283
2023-04-28T02:13:31.663Z,1.2777777777778283
2023-04-28T02:14:31.648Z,1.2777777777778283
2023-04-28T02:15:31.640Z,1.2777777777778283
2023-04-28T02:16:31.708Z,1.2777777777778283
2023-04-28T02:17:31.680Z,1.2777777777778283
2023-04-28T02:18:31.678Z,1.2777777777778283
2023-04-28T02:19:31.661Z,1.2777777777778283
2023-04-28T02:20:33.307Z,1.2777777777778283
2023-04-28T02:21:31.631Z,1.2777777777778283
2023-04-28T02:22:31.662Z,1.2777777777778283
2023-04-28T02:23:31.659Z,1.2777777777778283
2023-04-28T02:24:31.668Z,1.2777777777778283
2023-04-28T02:25:31.689Z,1.2777777777778283
2023-04-28T02:26:31.639Z,1.2777777777778283
2023-04-28T02:27:31.649Z,1.2777777777778283
2023-04-28T02:28:31.736Z,1.2777777777778283
2023-04-28T02:29:31.639Z,1.2777777777778283
2023-04-28T02:30:31.653Z,1.2777777777778283
2023-04-28T02:31:31.679Z,1.2777777777778283
2023-04-28T02:32:31.689Z,1.2777777777778283
2023-04-28T02:33:31.660Z,1.2777777777778283
2023-04-28T02:34:31.704Z,1.2777777777778283
2023-04-28T02:35:31.639Z,1.2777777777778283
2023-04-28T02:36:31.663Z,1.2777777777778283
2023-04-28T02:37:31.674Z,1.2777777777778283
2023-04-28T02:38:31.639Z,1.2777777777778283
2023-04-28T02:39:31.672Z,1.2777777777778283
2023-04-28T02:40:31.740Z,1.2777777777778283
2023-04-28T02:41:31.660Z,1.2777777777778283
2023-04-28T02:42:31.650Z,1.2777777777778283
2023-04-28T02:43:31.683Z,1.2777777777778283
2023-04-28T02:44:31.647Z,1.2777777777778283
2023-04-28T02:45:31.632Z,1.2777777777778283
2023-04-28T02:46:31.717Z,1.2777777777778283
2023-04-28T02:47:31.790Z,1.2777777777778283
2023-04-28T02:48:31.691Z,1.2777777777778283
2023-04-28T02:49:31.639Z,1.2777777777778283
2023-04-28T02:50:31.668Z,1.2777777777778283
2023-04-28T02:51:31.652Z,1.2777777777778283
2023-04-28T02:52:31.682Z,1.2777777777778283
2023-04-28T02:53:31.624Z,1.2777777777778283
2023-04-28T02:54:31.679Z,1.2777777777778283
2023-04-28T02:55:31.623Z,1.2777777777778283
2023-04-28T02:56:31.669Z,1.2777777777778283
2023-04-28T02:57:31.634Z,1.2777777777778283
2023-04-28T02:58:31.660Z,1.2777777777778283
2023-04-28T02:59:31.683Z,1.2777777777778283
2023-04-28T03:00:31.676Z,1.2777777777778283
2023-04-28T03:01:31.712Z,1.2777777777778283
2023-04-28T03:02:31.721Z,1.2777777777778283
2023-04-28T03:03:31.962Z,1.2777777777778283
2023-04-28T03:04:31.721Z,1.2777777777778283
2023-04-28T03:05:31.709Z,1.2222222222222854
2023-04-28T03:06:31.627Z,1.2222222222222854
2023-04-28T03:07:31.663Z,1.2222222222222854
2023-04-28T03:08:31.646Z,1.2777777777778283
2023-04-28T03:09:31.653Z,1.2777777777778283
2023-04-28T03:10:31.797Z,1.2777777777778283
2023-04-28T03:11:31.687Z,1.2777777777778283
2023-04-28T03:12:31.636Z,1.2777777777778283
2023-04-28T03:13:31.645Z,1.2777777777778283
2023-04-28T03:14:31.821Z,1.2777777777778283
2023-04-28T03:15:31.671Z,1.3888888888889142
2023-04-28T03:16:31.745Z,1.3888888888889142
2023-04-28T03:17:31.785Z,1.3888888888889142
2023-04-28T03:18:31.756Z,1.3888888888889142
2023-04-28T03:19:31.663Z,1.5000000000000568
2023-04-28T03:20:31.690Z,1.5000000000000568
2023-04-28T03:21:31.623Z,1.5000000000000568
2023-04-28T03:22:31.680Z,1.6111111111111427
2023-04-28T03:23:31.760Z,1.6111111111111427
2023-04-28T03:24:31.725Z,1.6111111111111427
2023-04-28T03:25:31.653Z,1.7222222222222854
2023-04-28T03:26:31.634Z,1.7222222222222854
2023-04-28T03:27:31.754Z,1.7222222222222854
2023-04-28T03:28:31.624Z,1.7777777777778283
2023-04-28T03:29:31.662Z,1.7777777777778283
2023-04-28T03:30:31.774Z,1.7777777777778283
2023-04-28T03:31:31.770Z,1.7777777777778283
2023-04-28T03:32:31.756Z,1.7777777777778283
2023-04-28T03:33:31.664Z,1.8888888888889142
2023-04-28T03:34:31.767Z,1.8888888888889142
2023-04-28T03:35:31.698Z,2.000000000000057
2023-04-28T03:36:31.769Z,2.000000000000057
2023-04-28T03:37:31.693Z,2.000000000000057
2023-04-28T03:38:31.677Z,2.1111111111111427
2023-04-28T03:39:31.647Z,2.1111111111111427
2023-04-28T03:40:31.753Z,2.2222222222222854
2023-04-28T03:41:31.821Z,2.2222222222222854
2023-04-28T03:42:31.653Z,2.2222222222222854
2023-04-28T03:43:31.726Z,2.2777777777778283
2023-04-28T03:44:31.741Z,2.2777777777778283
2023-04-28T03:45:31.824Z,2.2777777777778283
2023-04-28T03:46:31.674Z,2.2777777777778283
2023-04-28T03:47:31.669Z,2.2777777777778283
2023-04-28T03:48:31.741Z,2.2777777777778283
2023-04-28T03:49:31.830Z,2.388888888888914
2023-04-28T03:50:31.650Z,2.388888888888914
2023-04-28T03:51:31.655Z,2.388888888888914
2023-04-28T03:52:31.911Z,2.388888888888914
2023-04-28T03:53:31.662Z,2.388888888888914
2023-04-28T03:54:31.697Z,2.500000000000057
2023-04-28T03:55:31.647Z,2.388888888888914
2023-04-28T03:56:31.642Z,2.500000000000057
2023-04-28T03:57:31.694Z,2.500000000000057
2023-04-28T03:58:31.670Z,2.500000000000057
2023-04-28T03:59:31.628Z,2.500000000000057
2023-04-28T04:00:31.632Z,2.500000000000057
2023-04-28T04:01:31.675Z,2.500000000000057
2023-04-28T04:02:31.715Z,2.6111111111111427
2023-04-28T04:03:32.020Z,2.6111111111111427
2023-04-28T04:04:32.065Z,2.6111111111111427
2023-04-28T04:05:31.714Z,2.6111111111111427
2023-04-28T04:06:31.648Z,2.7222222222222285
2023-04-28T04:07:31.666Z,2.7222222222222285
2023-04-28T04:08:31.645Z,2.7222222222222285
2023-04-28T04:09:31.677Z,2.6111111111111427
2023-04-28T04:10:31.662Z,2.6111111111111427
2023-04-28T04:11:31.627Z,2.7222222222222285
2023-04-28T04:12:31.638Z,2.7222222222222285
2023-04-28T04:13:31.647Z,2.7222222222222285
2023-04-28T04:14:31.636Z,2.7222222222222285
2023-04-28T04:15:31.662Z,2.7222222222222285
2023-04-28T04:16:31.731Z,2.7222222222222285
2023-04-28T04:17:31.742Z,2.7222222222222285
2023-04-28T04:18:31.650Z,2.7222222222222285
2023-04-28T04:19:31.677Z,2.7777777777778283
2023-04-28T04:20:31.634Z,2.7777777777778283
2023-04-28T04:21:31.659Z,2.7777777777778283
2023-04-28T04:22:31.705Z,2.7777777777778283
2023-04-28T04:23:31.701Z,2.7777777777778283
2023-04-28T04:24:31.633Z,2.7777777777778283
2023-04-28T04:25:31.625Z,2.7777777777778283
2023-04-28T04:26:31.659Z,2.7777777777778283
2023-04-28T04:27:31.653Z,2.7777777777778283
2023-04-28T04:28:31.652Z,2.7777777777778283
2023-04-28T04:29:31.655Z,2.7777777777778283
2023-04-28T04:30:31.673Z,2.7777777777778283
2023-04-28T04:31:31.647Z,2.888888888888914
2023-04-28T04:32:31.663Z,2.888888888888914
2023-04-28T04:33:31.662Z,2.7777777777778283
2023-04-28T04:34:31.641Z,2.7777777777778283
2023-04-28T04:35:31.627Z,2.888888888888914
2023-04-28T04:36:31.613Z,2.888888888888914
2023-04-28T04:37:31.736Z,2.888888888888914
2023-04-28T04:38:31.637Z,2.888888888888914
2023-04-28T04:39:31.645Z,2.888888888888914
2023-04-28T04:40:31.621Z,2.888888888888914
2023-04-28T04:41:31.690Z,2.888888888888914
2023-04-28T04:42:31.636Z,3.000000000000057
2023-04-28T04:43:31.623Z,3.000000000000057
2023-04-28T04:44:31.628Z,3.000000000000057
2023-04-28T04:45:31.648Z,3.000000000000057
2023-04-28T04:46:31.653Z,3.000000000000057
2023-04-28T04:47:31.658Z,2.888888888888914
2023-04-28T04:48:31.646Z,2.888888888888914
2023-04-28T04:49:31.670Z,3.000000000000057
2023-04-28T04:50:31.655Z,3.000000000000057
2023-04-28T04:51:31.641Z,3.000000000000057
2023-04-28T04:52:31.634Z,3.000000000000057
2023-04-28T04:53:31.671Z,3.000000000000057
2023-04-28T04:54:31.725Z,3.000000000000057
2023-04-28T04:55:31.672Z,3.000000000000057
2023-04-28T04:56:31.690Z,3.000000000000057
2023-04-28T04:57:31.663Z,3.000000000000057
2023-04-28T04:58:31.657Z,3.000000000000057
2023-04-28T04:59:31.661Z,3.1111111111111427
2023-04-28T05:00:31.633Z,3.1111111111111427
2023-04-28T05:01:31.753Z,3.1111111111111427
2023-04-28T05:02:31.735Z,3.1111111111111427
2023-04-28T05:03:31.833Z,3.1111111111111427
2023-04-28T05:04:31.761Z,3.1111111111111427
2023-04-28T05:05:31.698Z,3.2222222222222854
2023-04-28T05:06:31.655Z,3.2222222222222854
2023-04-28T05:07:31.628Z,3.2222222222222854
2023-04-28T05:08:31.621Z,3.2222222222222854
2023-04-28T05:09:31.644Z,3.2222222222222854
2023-04-28T05:10:31.651Z,3.2222222222222854
2023-04-28T05:11:31.661Z,3.2222222222222854
2023-04-28T05:12:31.668Z,3.2222222222222854
2023-04-28T05:13:31.720Z,3.2222222222222854
2023-04-28T05:14:31.626Z,3.2777777777778283
2023-04-28T05:15:31.656Z,3.2777777777778283
2023-04-28T05:16:31.665Z,3.2222222222222854
2023-04-28T05:17:31.712Z,3.2222222222222854
2023-04-28T05:18:31.696Z,3.2222222222222854
2023-04-28T05:19:31.629Z,3.2222222222222854
2023-04-28T05:20:31.628Z,3.2777777777778283
2023-04-28T05:21:31.669Z,3.2222222222222854
2023-04-28T05:22:31.741Z,3.2222222222222854
2023-04-28T05:23:31.629Z,3.2222222222222854
2023-04-28T05:24:31.619Z,3.2222222222222854
2023-04-28T05:25:31.640Z,3.2222222222222854
2023-04-28T05:26:31.628Z,3.2222222222222854
2023-04-28T05:27:31.652Z,3.2222222222222854
2023-04-28T05:28:31.701Z,3.2777777777778283
2023-04-28T05:29:31.623Z,3.2777777777778283
2023-04-28T05:30:31.675Z,3.2777777777778283
2023-04-28T05:31:31.700Z,3.2777777777778283
2023-04-28T05:32:31.694Z,3.2777777777778283
2023-04-28T05:33:31.609Z,3.2777777777778283
2023-04-28T05:34:31.644Z,3.2777777777778283
2023-04-28T05:35:31.654Z,3.2777777777778283
2023-04-28T05:36:31.655Z,3.2777777777778283
2023-04-28T05:37:31.639Z,3.2777777777778283
2023-04-28T05:38:31.632Z,3.388888888888971
2023-04-28T05:39:31.622Z,3.388888888888971
2023-04-28T05:40:31.665Z,3.388888888888971
2023-04-28T05:41:31.593Z,3.388888888888971
2023-04-28T05:42:31.621Z,3.2777777777778283
2023-04-28T05:43:31.619Z,3.2777777777778283
2023-04-28T05:44:31.653Z,3.2777777777778283
2023-04-28T05:46:31.684Z,3.2777777777778283
2023-04-28T05:47:31.676Z,3.388888888888971
2023-04-28T05:48:31.645Z,3.388888888888971
2023-04-28T05:49:31.601Z,3.500000000000057
2023-04-28T05:50:31.650Z,3.500000000000057
2023-04-28T05:51:31.613Z,3.6111111111111427
2023-04-28T05:52:31.664Z,3.6111111111111427
2023-04-28T05:53:31.603Z,3.6111111111111427
2023-04-28T05:54:31.608Z,3.6111111111111427
2023-04-28T05:55:31.658Z,3.7222222222222854
2023-04-28T05:56:31.671Z,3.7222222222222854
2023-04-28T05:57:33.907Z,3.6111111111111427
2023-04-28T05:58:31.653Z,3.6111111111111427
2023-04-28T05:59:31.664Z,3.6111111111111427
2023-04-28T06:00:31.692Z,3.6111111111111427
2023-04-28T06:01:31.682Z,3.6111111111111427
2023-04-28T06:02:31.712Z,3.6111111111111427
2023-04-28T06:03:31.764Z,3.6111111111111427
2023-04-28T06:04:31.915Z,3.6111111111111427
2023-04-28T06:05:32.067Z,3.6111111111111427
2023-04-28T06:06:31.618Z,3.6111111111111427
2023-04-28T06:07:31.635Z,3.6111111111111427
2023-04-28T06:08:31.649Z,3.6111111111111427
2023-04-28T06:09:31.626Z,3.6111111111111427
2023-04-28T06:10:31.625Z,3.7222222222222854
2023-04-28T06:11:31.690Z,3.7222222222222854
2023-04-28T06:12:31.657Z,3.7222222222222854
2023-04-28T06:13:31.629Z,3.7222222222222854
2023-04-28T06:14:31.607Z,3.7777777777778283
2023-04-28T06:15:31.693Z,3.7777777777778283
2023-04-28T06:16:31.766Z,3.7777777777778283
2023-04-28T06:17:31.654Z,3.7777777777778283
2023-04-28T06:18:31.688Z,3.7777777777778283
2023-04-28T06:19:31.647Z,3.7777777777778283
2023-04-28T06:20:31.637Z,3.7777777777778283
2023-04-28T06:21:31.605Z,3.7777777777778283
2023-04-28T06:22:31.639Z,3.7777777777778283
2023-04-28T06:23:31.652Z,3.7777777777778283
2023-04-28T06:24:31.652Z,3.888888888888914
2023-04-28T06:25:31.619Z,3.888888888888914
2023-04-28T06:26:31.651Z,3.888888888888914
2023-04-28T06:27:31.622Z,4.000000000000057
2023-04-28T06:28:31.609Z,4.000000000000057
2023-04-28T06:29:31.650Z,4.000000000000057
2023-04-28T06:30:31.610Z,4.000000000000057
2023-04-28T06:31:31.707Z,4.000000000000057
2023-04-28T06:32:31.726Z,4.000000000000057
2023-04-28T06:33:31.646Z,4.000000000000057
2023-04-28T06:34:31.634Z,4.000000000000057
2023-04-28T06:35:31.679Z,4.000000000000057
2023-04-28T06:36:31.600Z,4.111111111111143
2023-04-28T06:37:31.770Z,4.111111111111143
2023-04-28T06:38:31.640Z,4.111111111111143
2023-04-28T06:39:31.667Z,4.111111111111143
2023-04-28T06:40:31.622Z,4.222222222222285
2023-04-28T06:41:31.654Z,4.277777777777828
2023-04-28T06:42:31.677Z,4.388888888888914
2023-04-28T06:43:31.653Z,4.388888888888914
2023-04-28T06:44:31.666Z,4.388888888888914
2023-04-28T06:45:31.654Z,4.388888888888914
2023-04-28T06:46:31.697Z,4.500000000000057
2023-04-28T06:47:31.629Z,4.611111111111143
2023-04-28T06:48:31.581Z,4.611111111111143
2023-04-28T06:49:31.650Z,4.611111111111143
2023-04-28T06:50:31.892Z,4.611111111111143
2023-04-28T06:51:31.629Z,4.611111111111143
2023-04-28T06:52:38.620Z,4.611111111111143
2023-04-28T06:53:31.635Z,4.611111111111143
2023-04-28T06:54:31.957Z,4.611111111111143
2023-04-28T06:55:31.656Z,4.611111111111143
2023-04-28T06:56:31.644Z,4.611111111111143
2023-04-28T06:57:31.636Z,4.500000000000057
2023-04-28T06:58:31.597Z,4.500000000000057
2023-04-28T06:59:31.645Z,4.388888888888914
2023-04-28T07:00:31.617Z,4.388888888888914
2023-04-28T07:01:31.645Z,4.277777777777828
2023-04-28T07:02:31.852Z,4.277777777777828
2023-04-28T07:03:31.751Z,4.277777777777828
2023-04-28T07:04:31.605Z,4.277777777777828
2023-04-28T07:05:31.643Z,4.277777777777828
2023-04-28T07:06:31.611Z,4.277777777777828
2023-04-28T07:07:31.899Z,4.277777777777828
2023-04-28T07:08:31.621Z,4.111111111111143
2023-04-28T07:09:31.669Z,4.000000000000057
2023-04-28T07:10:31.607Z,4.000000000000057
2023-04-28T07:11:31.655Z,4.111111111111143
2023-04-28T07:12:31.624Z,4.222222222222285
2023-04-28T07:13:31.637Z,4.277777777777828
2023-04-28T07:14:31.619Z,4.388888888888914
2023-04-28T07:15:31.612Z,4.388888888888914
2023-04-28T07:16:31.650Z,4.500000000000057
2023-04-28T07:17:31.699Z,4.611111111111143
2023-04-28T07:18:31.643Z,4.722222222222285
2023-04-28T07:19:31.629Z,4.722222222222285
2023-04-28T07:20:31.637Z,4.722222222222285
2023-04-28T07:21:31.664Z,4.611111111111143
2023-04-28T07:22:31.654Z,4.722222222222285
2023-04-28T07:23:31.626Z,4.777777777777828
2023-04-28T07:24:31.592Z,4.888888888888914
2023-04-28T07:25:31.629Z,5.000000000000057
2023-04-28T07:26:31.607Z,5.111111111111143
2023-04-28T07:27:31.652Z,5.111111111111143
2023-04-28T07:28:31.603Z,5.111111111111143
2023-04-28T07:29:31.651Z,5.111111111111143
2023-04-28T07:30:31.618Z,5.000000000000057
2023-04-28T07:31:31.671Z,5.000000000000057
2023-04-28T07:32:31.641Z,5.000000000000057
2023-04-28T07:33:31.632Z,5.000000000000057
2023-04-28T07:34:31.647Z,5.000000000000057
2023-04-28T07:35:31.644Z,5.111111111111143
2023-04-28T07:36:31.611Z,5.277777777777828
2023-04-28T07:37:32.924Z,5.277777777777828
2023-04-28T07:38:31.600Z,5.111111111111143
2023-04-28T07:39:31.646Z,5.000000000000057
2023-04-28T07:40:31.628Z,4.888888888888914
2023-04-28T07:41:31.650Z,4.888888888888914
2023-04-28T07:42:31.639Z,5.111111111111143
2023-04-28T07:43:31.650Z,5.2222222222222285
2023-04-28T07:44:31.615Z,5.2222222222222285
2023-04-28T07:45:31.660Z,5.2222222222222285
2023-04-28T07:46:31.721Z,5.388888888888914
2023-04-28T07:47:31.631Z,5.388888888888914
2023-04-28T07:48:31.622Z,5.500000000000057
2023-04-28T07:49:31.643Z,5.777777777777828
2023-04-28T07:50:31.599Z,5.888888888888971
2023-04-28T07:51:31.631Z,5.777777777777828
2023-04-28T07:52:31.616Z,5.777777777777828
2023-04-28T07:53:31.682Z,5.888888888888971
2023-04-28T07:54:31.623Z,5.777777777777828
2023-04-28T07:55:31.618Z,5.722222222222285
2023-04-28T07:56:31.616Z,5.722222222222285
2023-04-28T07:57:31.645Z,5.611111111111143
2023-04-28T07:58:31.624Z,5.277777777777828
2023-04-28T07:59:31.706Z,5.2222222222222285
2023-04-28T08:00:31.599Z,5.111111111111143
2023-04-28T08:01:31.646Z,5.111111111111143
2023-04-28T08:02:31.722Z,4.888888888888914
2023-04-28T08:03:31.775Z,4.888888888888914
2023-04-28T08:04:31.755Z,4.888888888888914
2023-04-28T08:05:31.747Z,5.000000000000057
2023-04-28T08:06:31.630Z,5.000000000000057
2023-04-28T08:07:31.618Z,4.888888888888914
2023-04-28T08:08:31.582Z,4.888888888888914
2023-04-28T08:09:31.631Z,4.777777777777828
2023-04-28T08:10:31.602Z,4.777777777777828
2023-04-28T08:11:31.629Z,4.777777777777828
2023-04-28T08:12:31.602Z,4.888888888888914
2023-04-28T08:13:31.631Z,4.888888888888914
2023-04-28T08:14:31.598Z,5.111111111111143
2023-04-28T08:15:31.631Z,5.277777777777828
2023-04-28T08:16:31.676Z,5.611111111111143
2023-04-28T08:17:31.650Z,5.777777777777828
2023-04-28T08:18:31.612Z,5.777777777777828
2023-04-28T08:19:31.616Z,5.722222222222285
2023-04-28T08:20:31.578Z,5.611111111111143
2023-04-28T08:21:31.623Z,5.611111111111143
2023-04-28T08:22:31.628Z,5.277777777777828
2023-04-28T08:23:31.609Z,5.388888888888914
2023-04-28T08:24:31.590Z,5.611111111111143
2023-04-28T08:25:31.595Z,5.611111111111143
2023-04-28T08:26:31.629Z,5.611111111111143
2023-04-28T08:27:31.629Z,5.500000000000057
2023-04-28T08:28:31.627Z,5.277777777777828
2023-04-28T08:29:31.602Z,5.111111111111143
2023-04-28T08:30:31.621Z,4.888888888888914
2023-04-28T08:31:31.683Z,4.722222222222285
2023-04-28T08:32:31.679Z,4.722222222222285
2023-04-28T08:33:31.593Z,4.722222222222285
2023-04-28T08:34:31.722Z,4.777777777777828
2023-04-28T08:35:31.592Z,4.777777777777828
2023-04-28T08:36:31.638Z,4.777777777777828
2023-04-28T08:37:31.585Z,4.777777777777828
2023-04-28T08:38:31.609Z,4.722222222222285
2023-04-28T08:39:31.601Z,4.611111111111143
2023-04-28T08:40:31.614Z,4.611111111111143
2023-04-28T08:41:31.600Z,4.500000000000057
2023-04-28T08:42:31.631Z,4.500000000000057
2023-04-28T08:43:31.629Z,4.500000000000057
2023-04-28T08:44:31.625Z,4.611111111111143
2023-04-28T08:45:31.617Z,4.722222222222285
2023-04-28T08:46:31.646Z,4.722222222222285
2023-04-28T08:47:31.692Z,4.722222222222285
2023-04-28T08:48:31.617Z,4.777777777777828
2023-04-28T08:49:31.627Z,4.777777777777828
2023-04-28T08:50:31.622Z,4.777777777777828
2023-04-28T08:51:31.643Z,4.777777777777828
2023-04-28T08:52:31.616Z,4.888888888888914
2023-04-28T08:53:31.850Z,4.888888888888914
2023-04-28T08:54:31.961Z,4.888888888888914
2023-04-28T08:55:31.629Z,5.000000000000057
2023-04-28T08:56:31.611Z,5.000000000000057
2023-04-28T08:57:31.653Z,5.000000000000057
2023-04-28T08:58:31.625Z,5.000000000000057
2023-04-28T08:59:31.642Z,5.000000000000057
2023-04-28T09:00:31.678Z,5.000000000000057
2023-04-28T09:01:31.721Z,4.888888888888914
2023-04-28T09:02:31.824Z,4.777777777777828
2023-04-28T09:03:31.750Z,4.777777777777828
2023-04-28T09:04:31.766Z,4.777777777777828
2023-04-28T09:05:31.679Z,4.777777777777828
2023-04-28T09:06:31.610Z,4.777777777777828
2023-04-28T09:07:31.620Z,4.777777777777828
2023-04-28T09:08:31.613Z,4.777777777777828
2023-04-28T09:09:34.165Z,4.888888888888914
2023-04-28T09:10:31.590Z,4.888888888888914